createdAt,value
2023-03-15T00:01:40.493Z,82.64
2023-03-15T00:04:07.718Z,83.02
2023-03-15T00:06:34.771Z,83.84
2023-03-15T00:09:02.021Z,83.77
2023-03-15T00:11:32.515Z,83.72
2023-03-15T00:13:59.683Z,83.83
2023-03-15T00:16:27.247Z,83.81
2023-03-15T00:18:56.790Z,84.52
2023-03-15T00:21:23.956Z,83.67
2023-03-15T00:23:50.993Z,83.75
2023-03-15T00:26:17.830Z,83.56
2023-03-15T00:28:44.721Z,83.58
2023-03-15T00:31:20.408Z,84.02
2023-03-15T00:33:48.181Z,83.70
2023-03-15T00:36:15.694Z,83.76
2023-03-15T00:38:44.190Z,84.19
2023-03-15T00:41:13.808Z,84.26
2023-03-15T00:43:41.562Z,83.83
2023-03-15T00:46:08.575Z,84.17
2023-03-15T00:48:36.182Z,84.20
2023-03-15T00:51:11.982Z,84.51
2023-03-15T00:53:40.729Z,84.59
2023-03-15T00:56:10.816Z,84.37
2023-03-15T00:58:38.116Z,84.77
2023-03-15T01:01:10.453Z,85.21
2023-03-15T01:03:37.856Z,85.07
2023-03-15T01:06:17.661Z,85.61
2023-03-15T01:08:45.133Z,85.44
2023-03-15T01:11:14.545Z,85.67
2023-03-15T01:13:41.106Z,85.81
2023-03-15T01:16:11.494Z,85.99
2023-03-15T01:18:38.929Z,86.08
2023-03-15T01:21:10.289Z,85.97
2023-03-15T01:23:37.187Z,86.07
2023-03-15T01:26:05.904Z,86.47
2023-03-15T01:28:32.619Z,86.65
2023-03-15T01:31:00.060Z,86.67
2023-03-15T01:33:27.466Z,86.07
2023-03-15T01:36:05.781Z,85.48
2023-03-15T01:38:33.724Z,84.97
2023-03-15T01:41:00.625Z,84.72
2023-03-15T01:43:28.787Z,84.59
2023-03-15T01:46:01.846Z,84.91
2023-03-15T01:48:44.707Z,84.80
2023-03-15T01:51:23.275Z,84.73
2023-03-15T01:54:21.225Z,84.44
2023-03-15T01:56:54.960Z,84.37
2023-03-15T01:59:26.888Z,84.42
2023-03-15T02:01:54.945Z,84.14
2023-03-15T02:04:36.302Z,84.78
2023-03-15T02:07:04.165Z,84.80
2023-03-15T02:09:44.228Z,84.81
2023-03-15T02:12:11.929Z,84.33
2023-03-15T02:14:39.331Z,84.81
2023-03-15T02:17:07.942Z,84.77
2023-03-15T02:19:40.751Z,85.17
2023-03-15T02:22:36.761Z,85.26
2023-03-15T02:25:17.194Z,85.35
2023-03-15T02:27:44.668Z,84.68
2023-03-15T02:30:11.929Z,85.02
2023-03-15T02:32:38.918Z,85.29
2023-03-15T02:35:05.868Z,85.49
2023-03-15T02:37:32.404Z,85.31
2023-03-15T02:39:58.959Z,85.51
2023-03-15T02:42:26.389Z,85.02
2023-03-15T02:44:57.465Z,85.32
2023-03-15T02:47:27.910Z,86.07
2023-03-15T02:49:54.816Z,85.69
2023-03-15T02:52:22.913Z,85.72
2023-03-15T02:54:50.136Z,86.17
2023-03-15T02:57:18.896Z,86.23
2023-03-15T02:59:46.862Z,86.51
2023-03-15T03:02:13.458Z,86.79
2023-03-15T03:04:42.052Z,86.42
2023-03-15T03:07:09.387Z,86.53
2023-03-15T03:09:57.167Z,86.49
2023-03-15T03:12:25.057Z,87.16
2023-03-15T03:14:52.574Z,86.87
2023-03-15T03:17:23.452Z,86.98
2023-03-15T03:19:51.613Z,87.16
2023-03-15T03:22:25.649Z,87.66
2023-03-15T03:24:52.307Z,87.80
2023-03-15T03:27:19.170Z,88.56
2023-03-15T03:29:47.153Z,88.16
2023-03-15T03:32:14.550Z,88.44
2023-03-15T03:34:41.569Z,88.15
2023-03-15T03:37:08.355Z,88.39
2023-03-15T03:39:53.723Z,88.20
2023-03-15T03:42:20.620Z,88.27
2023-03-15T03:44:50.213Z,88.03
2023-03-15T03:47:17.494Z,88.51
2023-03-15T03:49:44.503Z,88.40
2023-03-15T03:52:11.114Z,88.75
2023-03-15T03:54:37.625Z,88.75
2023-03-15T03:57:04.885Z,88.47
2023-03-15T03:59:34.629Z,88.19
2023-03-15T04:02:05.516Z,87.90
2023-03-15T04:04:32.845Z,87.94
2023-03-15T04:06:59.592Z,88.05
2023-03-15T04:09:31.888Z,88.22
2023-03-15T04:11:58.477Z,88.42
2023-03-15T04:14:25.373Z,88.39
2023-03-15T04:16:51.950Z,88.22
2023-03-15T04:19:20.212Z,88.12
2023-03-15T04:21:47.468Z,88.31
2023-03-15T04:24:34.956Z,88.05
2023-03-15T04:27:19.313Z,88.14
2023-03-15T04:29:59.762Z,87.59
2023-03-15T04:32:44.810Z,87.37
2023-03-15T04:35:23.117Z,87.66
2023-03-15T04:38:15.910Z,87.44
2023-03-15T04:40:56.546Z,87.11
2023-03-15T04:43:44.042Z,87.41
2023-03-15T04:46:27.943Z,87.32
2023-03-15T04:49:08.163Z,86.96
2023-03-15T04:52:04.046Z,86.79
2023-03-15T04:54:49.020Z,86.72
2023-03-15T04:57:31.060Z,87.01
2023-03-15T05:00:30.073Z,86.55
2023-03-15T05:03:19.530Z,86.74
2023-03-15T05:06:10.614Z,86.86
2023-03-15T05:08:39.788Z,87.06
2023-03-15T05:11:33.564Z,86.62
2023-03-15T05:14:09.504Z,86.79
2023-03-15T05:16:39.158Z,87.40
2023-03-15T05:19:16.057Z,87.37
2023-03-15T05:21:58.729Z,87.21
2023-03-15T05:24:45.558Z,86.69
2023-03-15T05:27:32.612Z,86.68
2023-03-15T05:30:23.426Z,86.34
2023-03-15T05:33:05.021Z,86.05
2023-03-15T05:35:47.308Z,86.62
2023-03-15T05:38:14.598Z,86.46
2023-03-15T05:41:18.060Z,85.84
2023-03-15T05:44:03.765Z,86.21
2023-03-15T05:46:49.073Z,86.00
2023-03-15T05:49:33.274Z,86.01
2023-03-15T05:52:20.065Z,86.63
2023-03-15T05:54:56.698Z,86.63
2023-03-15T05:57:43.899Z,86.79
2023-03-15T06:00:29.964Z,86.37
2023-03-15T06:03:03.086Z,86.26
2023-03-15T06:05:38.642Z,86.35
2023-03-15T06:08:09.919Z,86.13
2023-03-15T06:10:40.766Z,86.69
2023-03-15T06:13:09.729Z,86.54
2023-03-15T06:15:36.407Z,86.38
2023-03-15T06:18:03.012Z,86.69
2023-03-15T06:20:31.814Z,86.44
2023-03-15T06:23:03.881Z,86.37
2023-03-15T06:25:39.009Z,86.82
2023-03-15T06:28:05.657Z,87.16
2023-03-15T06:30:32.728Z,86.97
2023-03-15T06:33:01.232Z,86.60
2023-03-15T06:35:29.865Z,86.96
2023-03-15T06:37:56.437Z,87.36
2023-03-15T06:40:22.933Z,87.31
2023-03-15T06:42:50.379Z,87.44
2023-03-15T06:45:18.904Z,87.41
2023-03-15T06:47:46.612Z,87.24
2023-03-15T06:50:13.609Z,87.35
2023-03-15T06:52:40.261Z,87.91
2023-03-15T06:55:07.541Z,87.86
2023-03-15T06:57:34.040Z,87.93
2023-03-15T07:00:00.549Z,87.96
2023-03-15T07:02:27.144Z,87.97
2023-03-15T07:04:53.671Z,88.36
2023-03-15T07:07:20.297Z,88.55
2023-03-15T07:09:46.822Z,88.64
2023-03-15T07:12:13.584Z,88.91
2023-03-15T07:14:40.187Z,88.92
2023-03-15T07:17:06.845Z,89.38
2023-03-15T07:19:34.609Z,89.26
2023-03-15T07:22:02.443Z,89.61
2023-03-15T07:24:29.045Z,89.50
2023-03-15T07:26:56.538Z,89.36
2023-03-15T07:29:24.369Z,89.46
2023-03-15T07:31:51.472Z,89.39
2023-03-15T07:34:18.349Z,89.84
2023-03-15T07:36:45.071Z,89.80
2023-03-15T07:39:11.687Z,89.74
2023-03-15T07:41:38.337Z,89.68
2023-03-15T07:44:13.309Z,89.53
2023-03-15T07:46:39.853Z,89.43
2023-03-15T07:49:06.607Z,90.26
2023-03-15T07:51:33.268Z,90.66
2023-03-15T07:53:59.796Z,90.60
2023-03-15T07:56:26.327Z,90.38
2023-03-15T07:58:52.873Z,90.22
2023-03-15T08:01:19.401Z,90.08
2023-03-15T08:03:45.928Z,89.98
2023-03-15T08:06:12.450Z,89.92
2023-03-15T08:08:39.018Z,90.28
2023-03-15T08:11:06.241Z,90.13
2023-03-15T08:13:33.728Z,90.42
2023-03-15T08:16:00.265Z,90.17
2023-03-15T08:18:28.915Z,89.88
2023-03-15T08:20:56.093Z,89.17
2023-03-15T08:23:22.726Z,88.66
2023-03-15T08:25:50.010Z,88.95
2023-03-15T08:28:17.269Z,88.35
2023-03-15T08:30:43.841Z,88.36
2023-03-15T08:33:12.503Z,88.67
2023-03-15T08:35:39.138Z,89.01
2023-03-15T08:38:05.642Z,87.51
2023-03-15T08:40:32.194Z,87.11
2023-03-15T08:42:59.729Z,87.62
2023-03-15T08:45:26.760Z,87.12
2023-03-15T08:47:57.714Z,87.27
2023-03-15T08:50:25.807Z,86.70
2023-03-15T08:52:52.412Z,87.29
2023-03-15T08:55:19.371Z,87.64
2023-03-15T08:57:46.386Z,86.59
2023-03-15T09:00:20.990Z,87.04
2023-03-15T09:02:48.789Z,86.90
2023-03-15T09:05:16.874Z,86.02
2023-03-15T09:07:44.317Z,85.66
2023-03-15T09:10:14.887Z,85.38
2023-03-15T09:12:50.091Z,85.41
2023-03-15T09:15:16.994Z,84.55
2023-03-15T09:17:43.612Z,83.48
2023-03-15T09:20:15.331Z,82.01
2023-03-15T09:22:53.551Z,81.71
2023-03-15T09:25:20.852Z,82.34
2023-03-15T09:27:47.405Z,82.57
2023-03-15T09:30:14.746Z,82.56
2023-03-15T09:32:43.370Z,82.99
2023-03-15T09:35:13.919Z,82.50
2023-03-15T09:37:42.352Z,81.16
2023-03-15T09:40:38.900Z,82.18
2023-03-15T09:43:13.849Z,80.29
2023-03-15T09:46:05.921Z,80.16
2023-03-15T09:48:50.462Z,80.13
2023-03-15T09:51:35.551Z,79.73
2023-03-15T09:54:02.009Z,79.25
2023-03-15T09:56:33.913Z,78.46
2023-03-15T09:59:01.697Z,79.77
2023-03-15T10:01:38.595Z,77.31
2023-03-15T10:04:25.158Z,78.34
2023-03-15T10:06:57.581Z,78.96
2023-03-15T10:09:26.733Z,79.45
2023-03-15T10:12:03.415Z,78.05
2023-03-15T10:14:51.827Z,78.79
2023-03-15T10:17:41.439Z,79.17
2023-03-15T10:20:24.968Z,78.23
2023-03-15T10:23:39.342Z,78.97
2023-03-15T10:26:13.866Z,77.93
2023-03-15T10:28:40.812Z,75.23
2023-03-15T10:31:25.731Z,73.70
2023-03-15T10:33:59.385Z,71.83
2023-03-15T10:36:26.278Z,69.48
2023-03-15T10:38:53.105Z,72.05
2023-03-15T10:41:39.593Z,73.81
2023-03-15T10:44:15.982Z,72.48
2023-03-15T10:46:42.595Z,70.87
2023-03-15T10:49:12.649Z,72.03
2023-03-15T10:51:44.853Z,67.79
2023-03-15T10:54:16.388Z,66.46
2023-03-15T10:56:57.698Z,65.98
2023-03-15T10:59:26.891Z,66.79
2023-03-15T11:02:07.867Z,67.50
2023-03-15T11:04:34.572Z,68.36
2023-03-15T11:07:03.759Z,67.12
2023-03-15T11:09:42.422Z,65.44
2023-03-15T11:12:24.184Z,63.58
2023-03-15T11:14:55.833Z,60.92
2023-03-15T11:17:30.643Z,63.12
2023-03-15T11:20:13.486Z,62.00
2023-03-15T11:22:40.514Z,62.07
2023-03-15T11:25:15.183Z,60.48
2023-03-15T11:27:43.529Z,60.89
2023-03-15T11:30:14.691Z,60.92
2023-03-15T11:32:43.264Z,61.50
2023-03-15T11:35:22.607Z,62.12
2023-03-15T11:37:58.524Z,61.14
2023-03-15T11:40:34.538Z,61.18
2023-03-15T11:43:06.538Z,59.55
2023-03-15T11:45:42.497Z,60.41
2023-03-15T11:48:46.531Z,60.72
2023-03-15T11:51:13.712Z,61.15
2023-03-15T11:53:45.874Z,58.06
2023-03-15T11:56:27.532Z,60.10
2023-03-15T11:59:11.288Z,59.57
2023-03-15T12:01:42.336Z,57.77
2023-03-15T12:04:36.585Z,59.06
2023-03-15T12:07:06.363Z,56.97
2023-03-15T12:09:32.891Z,56.76
2023-03-15T12:12:02.169Z,58.99
2023-03-15T12:14:31.142Z,55.88
2023-03-15T12:17:26.965Z,56.90
2023-03-15T12:20:14.621Z,57.27
2023-03-15T12:22:55.114Z,56.96
2023-03-15T12:25:39.444Z,56.60
2023-03-15T12:28:23.424Z,56.85
2023-03-15T12:30:57.124Z,53.68
2023-03-15T12:33:25.379Z,54.70
2023-03-15T12:36:00.673Z,55.55
2023-03-15T12:38:35.635Z,53.52
2023-03-15T12:41:07.932Z,53.12
2023-03-15T12:43:38.868Z,53.11
2023-03-15T12:46:06.291Z,53.01
2023-03-15T12:48:33.220Z,51.99
2023-03-15T12:51:03.816Z,51.05
2023-03-15T12:53:38.121Z,50.02
2023-03-15T12:56:24.669Z,51.23
2023-03-15T12:58:58.268Z,49.60
2023-03-15T13:01:26.652Z,50.56
2023-03-15T13:03:58.187Z,47.87
2023-03-15T13:06:50.503Z,48.93
2023-03-15T13:09:21.199Z,47.19
2023-03-15T13:11:59.707Z,46.16
2023-03-15T13:14:32.156Z,47.21
2023-03-15T13:17:17.326Z,47.95
2023-03-15T13:19:46.905Z,47.49
2023-03-15T13:22:32.570Z,48.51
2023-03-15T13:24:59.072Z,44.71
2023-03-15T13:27:59.166Z,47.24
2023-03-15T13:30:36.568Z,45.83
2023-03-15T13:33:20.945Z,48.21
2023-03-15T13:35:55.014Z,44.50
2023-03-15T13:38:34.980Z,47.08
2023-03-15T13:41:04.021Z,46.70
2023-03-15T13:43:34.317Z,44.74
2023-03-15T13:46:01.780Z,45.53
2023-03-15T13:48:36.452Z,46.23
2023-03-15T13:51:34.901Z,47.10
2023-03-15T13:54:11.051Z,47.47
2023-03-15T13:56:49.852Z,46.37
2023-03-15T13:59:17.955Z,44.60
2023-03-15T14:01:44.798Z,46.49
2023-03-15T14:04:18.480Z,46.13
2023-03-15T14:06:46.003Z,44.87
2023-03-15T14:09:25.969Z,45.31
2023-03-15T14:12:07.278Z,45.32
2023-03-15T14:14:38.571Z,44.34
2023-03-15T14:17:19.221Z,45.13
2023-03-15T14:19:54.361Z,43.76
2023-03-15T14:22:21.557Z,45.97
2023-03-15T14:24:51.012Z,46.77
2023-03-15T14:27:27.470Z,46.40
2023-03-15T14:30:02.571Z,44.12
2023-03-15T14:32:35.606Z,42.99
2023-03-15T14:35:20.170Z,45.78
2023-03-15T14:37:47.053Z,42.37
2023-03-15T14:40:23.226Z,42.69
2023-03-15T14:42:50.847Z,42.35
2023-03-15T14:45:18.570Z,42.48
2023-03-15T14:47:57.822Z,44.16
2023-03-15T14:50:27.860Z,43.34
2023-03-15T14:52:56.945Z,45.33
2023-03-15T14:55:28.304Z,41.54
2023-03-15T14:57:55.387Z,42.31
2023-03-15T15:00:22.211Z,43.76
2023-03-15T15:02:51.996Z,43.69
2023-03-15T15:05:18.550Z,44.14
2023-03-15T15:07:45.368Z,42.27
2023-03-15T15:10:11.869Z,41.60
2023-03-15T15:12:38.376Z,42.74
2023-03-15T15:15:19.527Z,43.33
2023-03-15T15:17:46.027Z,44.80
2023-03-15T15:20:13.093Z,42.74
2023-03-15T15:22:40.269Z,44.47
2023-03-15T15:25:15.871Z,44.06
2023-03-15T15:27:42.928Z,43.60
2023-03-15T15:30:16.281Z,42.76
2023-03-15T15:32:46.513Z,42.14
2023-03-15T15:35:16.316Z,41.68
2023-03-15T15:37:44.934Z,42.71
2023-03-15T15:40:18.057Z,41.90
2023-03-15T15:42:45.418Z,41.71
2023-03-15T15:45:16.789Z,41.75
2023-03-15T15:47:44.058Z,41.54
2023-03-15T15:50:13.194Z,41.78
2023-03-15T15:52:42.300Z,41.30
2023-03-15T15:55:36.165Z,43.29
2023-03-15T15:58:04.454Z,42.25
2023-03-15T16:00:31.461Z,42.45
2023-03-15T16:02:58.755Z,41.01
2023-03-15T16:05:28.872Z,41.88
2023-03-15T16:07:56.900Z,43.18
2023-03-15T16:10:30.411Z,43.04
2023-03-15T16:12:58.322Z,42.49
2023-03-15T16:15:25.237Z,43.14
2023-03-15T16:17:51.711Z,42.99
2023-03-15T16:20:19.634Z,42.95
2023-03-15T16:22:53.435Z,42.17
2023-03-15T16:25:25.346Z,41.11
2023-03-15T16:27:54.193Z,41.36
2023-03-15T16:30:30.409Z,42.62
2023-03-15T16:32:57.680Z,42.26
2023-03-15T16:35:32.252Z,42.98
2023-03-15T16:37:59.482Z,43.46
2023-03-15T16:40:27.193Z,41.84
2023-03-15T16:42:54.593Z,42.83
2023-03-15T16:45:21.584Z,43.15
2023-03-15T16:47:48.670Z,43.53
2023-03-15T16:50:16.078Z,43.75
2023-03-15T16:52:45.164Z,43.72
2023-03-15T16:55:24.376Z,44.07
2023-03-15T16:57:51.204Z,44.18
2023-03-15T17:00:20.287Z,44.87
2023-03-15T17:02:49.225Z,44.94
2023-03-15T17:05:18.856Z,44.40
2023-03-15T17:07:47.730Z,45.09
2023-03-15T17:10:27.226Z,45.91
2023-03-15T17:12:55.773Z,46.34
2023-03-15T17:15:25.490Z,45.67
2023-03-15T17:17:53.227Z,46.85
2023-03-15T17:20:21.721Z,48.02
2023-03-15T17:22:53.704Z,49.15
2023-03-15T17:25:20.471Z,48.03
2023-03-15T17:27:48.698Z,48.63
2023-03-15T17:30:32.935Z,48.14
2023-03-15T17:32:59.992Z,48.84
2023-03-15T17:35:36.076Z,49.41
2023-03-15T17:38:05.890Z,49.25
2023-03-15T17:40:35.137Z,49.71
2023-03-15T17:43:03.656Z,50.10
2023-03-15T17:45:34.393Z,50.77
2023-03-15T17:48:01.559Z,49.96
2023-03-15T17:50:31.523Z,50.60
2023-03-15T17:53:14.966Z,50.66
2023-03-15T17:55:41.515Z,50.95
2023-03-15T17:58:21.498Z,51.04
2023-03-15T18:00:54.730Z,51.74
2023-03-15T18:03:22.193Z,51.47
2023-03-15T18:05:48.987Z,51.47
2023-03-15T18:08:18.634Z,50.94
2023-03-15T18:10:46.967Z,51.19
2023-03-15T18:13:17.618Z,50.72
2023-03-15T18:15:46.090Z,51.60
2023-03-15T18:18:12.821Z,50.87
2023-03-15T18:20:39.630Z,50.95
2023-03-15T18:23:06.442Z,52.12
2023-03-15T18:25:34.861Z,51.47
2023-03-15T18:28:01.889Z,51.22
2023-03-15T18:30:31.159Z,52.32
2023-03-15T18:32:58.179Z,52.68
2023-03-15T18:35:29.745Z,52.34
2023-03-15T18:37:57.441Z,52.08
2023-03-15T18:40:26.502Z,52.82
2023-03-15T18:42:54.867Z,52.38
2023-03-15T18:45:27.150Z,52.83
2023-03-15T18:47:53.840Z,53.88
2023-03-15T18:50:21.500Z,53.57
2023-03-15T18:52:48.480Z,53.95
2023-03-15T18:55:17.954Z,53.90
2023-03-15T18:57:46.178Z,54.08
2023-03-15T19:00:16.946Z,53.98
2023-03-15T19:02:46.088Z,53.94
2023-03-15T19:05:14.342Z,54.49
2023-03-15T19:07:41.603Z,54.04
2023-03-15T19:10:13.809Z,53.64
2023-03-15T19:12:46.460Z,54.50
2023-03-15T19:15:17.257Z,53.81
2023-03-15T19:17:45.299Z,54.85
2023-03-15T19:20:14.324Z,55.04
2023-03-15T19:22:41.447Z,54.17
2023-03-15T19:25:11.480Z,53.86
2023-03-15T19:27:38.185Z,54.53
2023-03-15T19:30:08.490Z,54.34
2023-03-15T19:32:35.892Z,54.28
2023-03-15T19:35:02.513Z,55.00
2023-03-15T19:37:29.015Z,54.58
2023-03-15T19:39:55.575Z,54.65
2023-03-15T19:42:22.341Z,55.11
2023-03-15T19:44:48.880Z,54.68
2023-03-15T19:47:15.467Z,55.35
2023-03-15T19:49:42.009Z,54.74
2023-03-15T19:52:09.487Z,55.57
2023-03-15T19:54:36.120Z,55.33
2023-03-15T19:57:02.708Z,55.55
2023-03-15T19:59:29.276Z,55.71
2023-03-15T20:01:56.095Z,54.81
2023-03-15T20:04:22.835Z,55.49
2023-03-15T20:06:49.375Z,55.25
2023-03-15T20:09:15.860Z,55.73
2023-03-15T20:11:42.358Z,55.32
2023-03-15T20:14:08.880Z,56.40
2023-03-15T20:16:35.427Z,56.49
2023-03-15T20:19:01.995Z,56.61
2023-03-15T20:21:29.592Z,56.68
2023-03-15T20:23:56.123Z,57.07
2023-03-15T20:26:23.794Z,55.73
2023-03-15T20:28:50.453Z,57.11
2023-03-15T20:31:18.934Z,56.74
2023-03-15T20:33:48.779Z,57.23
2023-03-15T20:36:17.026Z,57.40
2023-03-15T20:38:45.245Z,56.94
2023-03-15T20:41:14.611Z,57.09
2023-03-15T20:43:41.897Z,56.80
2023-03-15T20:46:09.916Z,57.94
2023-03-15T20:48:36.989Z,57.90
2023-03-15T20:51:04.830Z,57.62
2023-03-15T20:53:33.440Z,58.17
2023-03-15T20:56:00.334Z,57.56
2023-03-15T20:58:27.271Z,58.32
2023-03-15T21:01:08.755Z,58.11
2023-03-15T21:03:36.526Z,58.04
2023-03-15T21:06:05.984Z,58.35
2023-03-15T21:08:33.581Z,57.70
2023-03-15T21:11:01.104Z,57.93
2023-03-15T21:13:28.347Z,58.07
2023-03-15T21:15:55.469Z,58.15
2023-03-15T21:18:24.112Z,58.68
2023-03-15T21:21:02.500Z,58.88
2023-03-15T21:23:33.047Z,57.85
2023-03-15T21:26:03.200Z,59.06
2023-03-15T21:28:30.722Z,58.47
2023-03-15T21:30:58.081Z,58.77
2023-03-15T21:33:28.025Z,58.64
2023-03-15T21:35:56.110Z,58.77
2023-03-15T21:38:23.338Z,59.19
2023-03-15T21:40:52.560Z,59.03
2023-03-15T21:43:19.789Z,58.74
2023-03-15T21:45:46.680Z,59.07
2023-03-15T21:48:13.585Z,58.59
2023-03-15T21:50:41.722Z,58.79
2023-03-15T21:53:08.261Z,59.29
2023-03-15T21:55:34.870Z,58.91
2023-03-15T21:58:02.471Z,59.58
2023-03-15T22:00:29.836Z,59.86
2023-03-15T22:02:56.493Z,59.18
2023-03-15T22:05:23.241Z,59.45
2023-03-15T22:07:49.817Z,59.84
2023-03-15T22:10:17.044Z,59.46
2023-03-15T22:12:43.598Z,59.78
2023-03-15T22:15:10.445Z,59.86
2023-03-15T22:17:37.158Z,59.66
2023-03-15T22:20:16.985Z,59.84
2023-03-15T22:22:45.323Z,60.21
2023-03-15T22:25:11.930Z,60.47
2023-03-15T22:27:39.142Z,60.39
2023-03-15T22:30:07.031Z,59.97
2023-03-15T22:32:33.528Z,60.09
2023-03-15T22:35:00.125Z,60.52
2023-03-15T22:37:26.717Z,61.19
2023-03-15T22:39:53.192Z,60.68
2023-03-15T22:42:19.689Z,61.02
2023-03-15T22:44:46.156Z,60.86
2023-03-15T22:47:12.729Z,61.32
2023-03-15T22:49:39.257Z,61.54
2023-03-15T22:52:06.042Z,61.48
2023-03-15T22:54:32.541Z,61.14
2023-03-15T22:56:59.087Z,61.38
2023-03-15T22:59:28.947Z,62.04
2023-03-15T23:01:56.567Z,62.42
2023-03-15T23:04:23.881Z,62.05
2023-03-15T23:06:51.656Z,62.11
2023-03-15T23:09:18.294Z,61.62
2023-03-15T23:11:44.821Z,62.57
2023-03-15T23:14:11.453Z,62.29
2023-03-15T23:16:38.086Z,61.97
2023-03-15T23:19:04.974Z,61.93
2023-03-15T23:21:31.584Z,62.04
2023-03-15T23:23:58.101Z,62.23
2023-03-15T23:26:25.641Z,62.05
2023-03-15T23:28:53.881Z,62.48
2023-03-15T23:31:21.022Z,62.59
2023-03-15T23:33:47.658Z,62.86
2023-03-15T23:36:14.620Z,62.94
2023-03-15T23:38:41.336Z,63.01
2023-03-15T23:41:07.855Z,63.53
2023-03-15T23:43:34.485Z,63.43
2023-03-15T23:46:05.263Z,63.63
2023-03-15T23:48:35.562Z,63.52
2023-03-15T23:51:05.456Z,63.58
2023-03-15T23:53:32.323Z,64.22
2023-03-15T23:55:58.903Z,63.69
2023-03-15T23:58:25.656Z,63.62
